createdAt,value
2022-07-30T00:00:25.159Z,18.93
2022-07-30T00:02:54.193Z,22.40
2022-07-30T00:05:24.587Z,20.33
2022-07-30T00:07:53.121Z,18.90
2022-07-30T00:10:23.037Z,17.87
2022-07-30T00:12:51.896Z,21.00
2022-07-30T00:15:20.450Z,17.77
2022-07-30T00:17:49.284Z,17.93
2022-07-30T00:20:18.485Z,21.50
2022-07-30T00:22:48.696Z,24.67
2022-07-30T00:25:21.328Z,21.03
2022-07-30T00:27:49.833Z,17.07
2022-07-30T00:30:18.478Z,18.20
2022-07-30T00:32:46.857Z,24.00
2022-07-30T00:35:15.868Z,18.70
2022-07-30T00:37:44.614Z,17.57
2022-07-30T00:41:01.077Z,21.00
2022-07-30T00:43:29.579Z,19.93
2022-07-30T00:45:58.097Z,19.77
2022-07-30T00:48:26.615Z,18.90
2022-07-30T00:50:55.455Z,18.50
2022-07-30T00:53:25.774Z,18.63
2022-07-30T00:55:54.384Z,18.30
2022-07-30T00:58:24.141Z,19.63
2022-07-30T01:00:53.082Z,20.40
2022-07-30T01:03:21.736Z,21.00
2022-07-30T01:05:50.923Z,19.20
2022-07-30T01:08:19.376Z,21.03
2022-07-30T01:10:47.879Z,19.70
2022-07-30T01:13:16.535Z,18.67
2022-07-30T01:15:46.663Z,19.73
2022-07-30T01:18:18.472Z,21.17
2022-07-30T01:21:00.833Z,20.47
2022-07-30T01:23:39.251Z,23.70
2022-07-30T01:26:19.040Z,22.00
2022-07-30T01:28:55.033Z,23.17
2022-07-30T01:31:28.327Z,25.53
2022-07-30T01:34:02.229Z,23.80
2022-07-30T01:36:32.854Z,25.37
2022-07-30T01:39:03.017Z,24.20
2022-07-30T01:41:33.448Z,24.77
2022-07-30T01:44:03.422Z,26.17
2022-07-30T01:46:34.580Z,24.00
2022-07-30T01:49:04.910Z,25.37
2022-07-30T01:51:37.728Z,27.63
2022-07-30T01:54:10.962Z,25.90
2022-07-30T01:56:43.559Z,24.53
2022-07-30T01:59:14.924Z,23.90
2022-07-30T02:01:43.646Z,26.53
2022-07-30T02:04:12.442Z,24.47
2022-07-30T02:06:47.576Z,29.60
2022-07-30T02:09:30.539Z,25.47
2022-07-30T02:12:21.446Z,24.97
2022-07-30T02:14:56.246Z,25.23
2022-07-30T02:17:39.563Z,28.53
2022-07-30T02:20:15.745Z,22.43
2022-07-30T02:22:49.811Z,21.77
2022-07-30T02:25:22.516Z,25.63
2022-07-30T02:27:59.499Z,25.73
2022-07-30T02:30:33.696Z,26.47
2022-07-30T02:33:08.376Z,26.00
2022-07-30T02:35:39.129Z,28.30
2022-07-30T02:38:10.214Z,23.73
2022-07-30T02:40:44.468Z,27.30
2022-07-30T02:43:17.198Z,28.03
2022-07-30T02:45:49.947Z,28.53
2022-07-30T02:48:35.192Z,28.83
2022-07-30T02:51:09.642Z,32.00
2022-07-30T02:53:41.241Z,26.77
2022-07-30T02:56:11.951Z,26.07
2022-07-30T02:58:45.010Z,28.77
2022-07-30T03:01:19.140Z,25.77
2022-07-30T03:03:49.445Z,27.60
2022-07-30T03:06:20.934Z,29.23
2022-07-30T03:08:51.323Z,30.43
2022-07-30T03:11:23.092Z,29.97
2022-07-30T03:13:53.136Z,28.87
2022-07-30T03:16:26.010Z,29.63
2022-07-30T03:18:56.224Z,31.00
2022-07-30T03:21:28.025Z,29.43
2022-07-30T03:23:59.540Z,30.33
2022-07-30T03:26:29.730Z,31.97
2022-07-30T03:29:02.569Z,31.97
2022-07-30T03:31:36.412Z,33.60
2022-07-30T03:34:08.280Z,31.73
2022-07-30T03:36:40.030Z,35.90
2022-07-30T03:39:10.806Z,31.90
2022-07-30T03:41:40.540Z,32.93
2022-07-30T03:44:15.586Z,33.30
2022-07-30T03:46:45.869Z,30.93
2022-07-30T03:49:15.273Z,30.97
2022-07-30T03:51:49.075Z,32.40
2022-07-30T03:54:18.322Z,32.90
2022-07-30T03:57:02.649Z,33.47
2022-07-30T03:59:45.324Z,36.23
2022-07-30T04:02:14.638Z,34.10
2022-07-30T04:04:57.997Z,37.13
2022-07-30T04:07:26.548Z,40.53
2022-07-30T04:09:55.067Z,35.20
2022-07-30T04:12:50.484Z,37.37
2022-07-30T04:16:34.336Z,34.20
2022-07-30T04:18:12.994Z,37.43
2022-07-30T04:20:45.639Z,38.33
2022-07-30T04:23:15.300Z,42.37
2022-07-30T04:25:45.799Z,41.07
2022-07-30T04:28:15.940Z,42.80
2022-07-30T04:30:47.264Z,45.63
2022-07-30T04:33:16.773Z,40.23
2022-07-30T04:36:11.178Z,43.80
2022-07-30T04:38:42.436Z,47.40
2022-07-30T04:41:12.098Z,43.13
2022-07-30T04:44:03.554Z,45.20
2022-07-30T04:46:35.267Z,48.17
2022-07-30T04:49:03.989Z,42.93
2022-07-30T04:51:39.402Z,46.93
2022-07-30T04:54:15.234Z,43.87
2022-07-30T04:56:53.159Z,41.40
2022-07-30T04:59:26.335Z,50.33
2022-07-30T05:01:59.967Z,42.10
2022-07-30T05:04:32.751Z,46.57
2022-07-30T05:07:04.288Z,38.20
2022-07-30T05:09:34.713Z,40.40
2022-07-30T05:12:03.758Z,42.10
2022-07-30T05:14:32.311Z,43.03
2022-07-30T05:17:02.916Z,35.27
2022-07-30T05:19:32.093Z,34.63
2022-07-30T05:22:06.131Z,33.37
2022-07-30T05:24:36.679Z,32.80
2022-07-30T05:27:05.636Z,30.50
2022-07-30T05:29:34.213Z,30.50
2022-07-30T05:32:14.159Z,29.57
2022-07-30T05:34:44.137Z,31.63
2022-07-30T05:37:18.827Z,27.10
2022-07-30T05:40:02.289Z,28.53
2022-07-30T05:42:50.856Z,26.33
2022-07-30T05:45:19.512Z,25.90
2022-07-30T05:47:49.579Z,25.03
2022-07-30T05:50:18.852Z,23.70
2022-07-30T05:52:47.434Z,22.10
2022-07-30T05:55:36.357Z,24.53
2022-07-30T05:58:18.445Z,23.37
2022-07-30T06:00:47.159Z,21.33
2022-07-30T06:03:17.387Z,22.43
2022-07-30T06:06:08.358Z,24.70
2022-07-30T06:08:37.418Z,22.80
2022-07-30T06:11:10.889Z,23.43
2022-07-30T06:13:41.469Z,22.00
2022-07-30T06:16:10.712Z,21.33
2022-07-30T06:18:40.672Z,21.60
2022-07-30T06:21:21.409Z,21.23
2022-07-30T06:24:10.090Z,21.07
2022-07-30T06:26:42.585Z,22.70
2022-07-30T06:29:11.250Z,22.20
2022-07-30T06:31:42.552Z,21.33
2022-07-30T06:34:14.863Z,24.37
2022-07-30T06:36:44.969Z,21.80
2022-07-30T06:39:57.781Z,23.03
2022-07-30T06:42:22.509Z,19.63
2022-07-30T06:45:21.639Z,21.17
2022-07-30T06:48:08.725Z,19.77
2022-07-30T06:50:41.322Z,25.70
2022-07-30T06:53:10.340Z,26.57
2022-07-30T06:56:00.584Z,24.67
2022-07-30T06:58:36.330Z,23.00
2022-07-30T07:01:25.183Z,24.73
2022-07-30T07:03:55.590Z,24.97
2022-07-30T07:06:25.745Z,24.23
2022-07-30T07:08:54.535Z,23.00
2022-07-30T07:11:31.404Z,29.57
2022-07-30T07:14:04.867Z,25.50
2022-07-30T07:16:40.032Z,25.83
2022-07-30T07:20:01.002Z,23.23
2022-07-30T07:22:22.736Z,24.37
2022-07-30T07:24:51.324Z,22.93
2022-07-30T07:27:23.599Z,21.87
2022-07-30T07:30:04.910Z,21.77
2022-07-30T07:32:38.103Z,19.87
2022-07-30T07:35:08.313Z,20.60
2022-07-30T07:37:41.955Z,21.17
2022-07-30T07:40:14.506Z,23.10
2022-07-30T07:42:44.359Z,21.53
2022-07-30T07:45:13.604Z,17.80
2022-07-30T07:47:53.756Z,18.10
2022-07-30T07:50:37.893Z,18.20
2022-07-30T07:53:09.919Z,18.60
2022-07-30T07:55:38.504Z,17.50
2022-07-30T07:58:07.303Z,20.93
2022-07-30T08:00:37.015Z,15.77
2022-07-30T08:03:05.747Z,16.50
2022-07-30T08:05:56.857Z,16.97
2022-07-30T08:08:50.353Z,15.80
2022-07-30T08:11:57.190Z,16.10
2022-07-30T08:15:09.431Z,17.50
2022-07-30T08:17:58.265Z,17.20
2022-07-30T08:20:47.142Z,16.97
2022-07-30T08:23:18.035Z,22.77
2022-07-30T08:25:47.911Z,18.30
2022-07-30T08:28:35.169Z,17.67
2022-07-30T08:31:08.145Z,16.87
2022-07-30T08:33:36.866Z,20.47
2022-07-30T08:36:10.212Z,17.50
2022-07-30T08:38:40.683Z,18.83
2022-07-30T08:41:11.957Z,18.10
2022-07-30T08:43:42.151Z,16.83
2022-07-30T08:46:18.923Z,21.23
2022-07-30T08:49:09.226Z,17.10
2022-07-30T08:51:40.349Z,21.10
2022-07-30T08:54:08.941Z,17.17
2022-07-30T08:56:40.423Z,16.53
2022-07-30T08:59:09.436Z,17.93
2022-07-30T09:01:41.140Z,16.57
2022-07-30T09:04:09.736Z,13.80
2022-07-30T09:06:40.839Z,14.40
2022-07-30T09:09:09.601Z,15.10
2022-07-30T09:11:40.669Z,14.87
2022-07-30T09:14:11.921Z,15.03
2022-07-30T09:16:42.651Z,16.60
2022-07-30T09:19:18.317Z,16.27
2022-07-30T09:21:58.157Z,13.80
2022-07-30T09:24:44.375Z,14.67
2022-07-30T09:27:46.391Z,14.17
2022-07-30T09:30:49.943Z,13.93
2022-07-30T09:33:48.352Z,14.07
2022-07-30T09:36:35.529Z,14.30
2022-07-30T09:39:32.590Z,16.03
2022-07-30T09:42:38.766Z,17.10
2022-07-30T09:45:13.832Z,14.13
2022-07-30T09:47:48.420Z,13.50
2022-07-30T09:50:29.993Z,14.70
2022-07-30T09:53:11.925Z,18.60
2022-07-30T09:55:43.435Z,13.63
2022-07-30T09:58:26.517Z,14.93
2022-07-30T10:01:00.197Z,15.23
2022-07-30T10:03:48.519Z,15.20
2022-07-30T10:06:43.344Z,15.40
2022-07-30T10:09:27.963Z,17.20
2022-07-30T10:11:58.300Z,15.27
2022-07-30T10:14:35.257Z,22.47
2022-07-30T10:17:12.885Z,13.87
2022-07-30T10:19:43.035Z,14.87
2022-07-30T10:22:54.569Z,15.90
2022-07-30T10:25:49.676Z,14.80
2022-07-30T10:29:03.301Z,15.90
2022-07-30T10:31:49.036Z,15.33
2022-07-30T10:34:23.580Z,13.67
2022-07-30T10:37:01.707Z,13.83
2022-07-30T10:39:40.459Z,14.70
2022-07-30T10:42:34.464Z,12.77
2022-07-30T10:45:26.962Z,12.30
2022-07-30T10:47:58.253Z,13.80
2022-07-30T10:50:29.026Z,15.67
2022-07-30T10:53:01.167Z,14.30
2022-07-30T10:55:38.488Z,13.73
2022-07-30T10:58:12.131Z,13.67
2022-07-30T11:01:04.245Z,12.30
2022-07-30T11:03:40.670Z,12.77
2022-07-30T11:06:29.639Z,13.27
2022-07-30T11:08:58.482Z,14.83
2022-07-30T11:12:01.953Z,13.00
2022-07-30T11:15:06.650Z,14.70
2022-07-30T11:18:12.835Z,13.73
2022-07-30T11:20:48.844Z,13.47
2022-07-30T11:23:42.937Z,16.23
2022-07-30T11:26:14.329Z,13.73
2022-07-30T11:28:49.375Z,19.70
2022-07-30T11:31:49.884Z,12.93
2022-07-30T11:34:30.993Z,18.70
2022-07-30T11:37:18.390Z,23.13
2022-07-30T11:40:13.838Z,18.87
2022-07-30T11:42:43.590Z,18.23
2022-07-30T11:45:33.150Z,14.33
2022-07-30T11:48:01.982Z,13.23
2022-07-30T11:50:34.862Z,13.03
2022-07-30T11:53:07.739Z,13.00
2022-07-30T11:55:41.305Z,12.80
2022-07-30T11:58:12.497Z,11.90
2022-07-30T12:00:47.717Z,12.20
2022-07-30T12:03:19.075Z,12.90
2022-07-30T12:05:51.263Z,12.63
2022-07-30T12:08:35.216Z,11.70
2022-07-30T12:11:08.098Z,14.87
2022-07-30T12:13:44.178Z,15.50
2022-07-30T12:16:14.957Z,12.17
2022-07-30T12:18:44.072Z,11.87
2022-07-30T12:21:15.976Z,11.90
2022-07-30T12:23:57.501Z,13.40
2022-07-30T12:26:29.300Z,13.20
2022-07-30T12:28:59.412Z,12.37
2022-07-30T12:31:29.251Z,12.17
2022-07-30T12:33:59.195Z,14.00
2022-07-30T12:36:31.839Z,14.40
2022-07-30T12:39:04.187Z,13.33
2022-07-30T12:41:44.255Z,12.23
2022-07-30T12:44:37.442Z,12.20
2022-07-30T12:47:18.756Z,14.60
2022-07-30T12:49:49.857Z,12.93
2022-07-30T12:52:27.556Z,13.43
2022-07-30T12:55:08.681Z,13.27
2022-07-30T12:57:58.073Z,16.60
2022-07-30T13:00:29.709Z,12.63
2022-07-30T13:02:59.046Z,12.50
2022-07-30T13:05:51.576Z,15.00
2022-07-30T13:08:51.131Z,13.03
2022-07-30T13:11:23.986Z,13.30
2022-07-30T13:13:53.829Z,13.20
2022-07-30T13:16:22.562Z,14.33
2022-07-30T13:18:51.196Z,13.80
2022-07-30T13:21:19.653Z,12.30
2022-07-30T13:23:48.026Z,13.20
2022-07-30T13:26:17.104Z,12.70
2022-07-30T13:28:47.038Z,13.50
2022-07-30T13:31:15.605Z,12.77
2022-07-30T13:33:44.138Z,12.97
2022-07-30T13:36:12.770Z,18.27
2022-07-30T13:38:45.213Z,13.70
2022-07-30T13:41:13.797Z,18.40
2022-07-30T13:43:42.320Z,16.33
2022-07-30T13:46:12.880Z,16.10
2022-07-30T13:48:42.213Z,16.13
2022-07-30T13:51:11.114Z,14.60
2022-07-30T13:53:39.645Z,15.70
2022-07-30T13:56:12.443Z,16.60
2022-07-30T13:58:41.712Z,13.53
2022-07-30T14:01:17.638Z,14.63
2022-07-30T14:03:50.034Z,15.57
2022-07-30T14:06:19.666Z,13.53
2022-07-30T14:08:48.176Z,16.70
2022-07-30T14:11:17.852Z,13.67
2022-07-30T14:13:46.707Z,13.23
2022-07-30T14:16:42.354Z,15.77
2022-07-30T14:19:05.462Z,14.77
2022-07-30T14:21:34.479Z,15.77
2022-07-30T14:24:05.037Z,14.53
2022-07-30T14:26:36.771Z,14.13
2022-07-30T14:29:05.722Z,16.00
2022-07-30T14:31:36.496Z,14.67
2022-07-30T14:34:05.583Z,13.03
2022-07-30T14:36:34.233Z,14.10
2022-07-30T14:39:04.253Z,13.73
2022-07-30T14:41:38.649Z,13.47
2022-07-30T14:44:12.006Z,14.20
2022-07-30T14:46:52.171Z,15.13
2022-07-30T14:49:30.873Z,14.90
2022-07-30T14:51:59.314Z,13.33
2022-07-30T14:54:28.596Z,15.97
2022-07-30T14:56:58.532Z,12.90
2022-07-30T14:59:28.647Z,15.10
2022-07-30T15:01:58.790Z,14.70
2022-07-30T15:04:27.231Z,12.90
2022-07-30T15:06:55.771Z,12.30
2022-07-30T15:09:27.500Z,15.70
2022-07-30T15:12:09.036Z,12.10
2022-07-30T15:14:40.203Z,13.40
2022-07-30T15:17:10.866Z,17.37
2022-07-30T15:19:49.303Z,13.70
2022-07-30T15:22:20.190Z,12.40
2022-07-30T15:24:48.863Z,13.10
2022-07-30T15:27:17.545Z,14.10
2022-07-30T15:29:46.212Z,12.73
2022-07-30T15:32:17.505Z,14.40
2022-07-30T15:34:46.086Z,13.03
2022-07-30T15:37:15.522Z,13.80
2022-07-30T15:39:44.174Z,15.00
2022-07-30T15:42:14.780Z,15.80
2022-07-30T15:44:48.738Z,16.80
2022-07-30T15:47:19.035Z,18.00
2022-07-30T15:49:47.610Z,13.57
2022-07-30T15:52:16.268Z,15.13
2022-07-30T15:54:44.848Z,14.77
2022-07-30T15:57:13.287Z,14.10
2022-07-30T15:59:41.814Z,17.10
2022-07-30T16:02:10.490Z,13.73
2022-07-30T16:04:40.358Z,15.10
2022-07-30T16:07:09.732Z,13.47
2022-07-30T16:09:38.372Z,17.13
2022-07-30T16:12:08.011Z,15.80
2022-07-30T16:14:36.944Z,13.57
2022-07-30T16:17:10.461Z,20.13
2022-07-30T16:19:44.916Z,13.83
2022-07-30T16:22:23.584Z,16.07
2022-07-30T16:24:53.571Z,15.07
2022-07-30T16:27:22.092Z,13.60
2022-07-30T16:29:50.545Z,14.47
2022-07-30T16:32:19.174Z,13.27
2022-07-30T16:34:49.823Z,13.80
2022-07-30T16:37:18.362Z,18.83
2022-07-30T16:39:46.955Z,16.63
2022-07-30T16:42:15.603Z,15.63
2022-07-30T16:44:44.202Z,17.67
2022-07-30T16:47:13.988Z,15.10
2022-07-30T16:49:42.702Z,15.87
2022-07-30T16:52:12.491Z,15.10
2022-07-30T16:54:40.993Z,14.70
2022-07-30T16:57:11.624Z,18.73
2022-07-30T16:59:42.170Z,13.63
2022-07-30T17:02:12.400Z,16.10
2022-07-30T17:04:41.494Z,17.30
2022-07-30T17:07:10.082Z,13.37
2022-07-30T17:09:40.133Z,13.50
2022-07-30T17:12:12.514Z,13.63
2022-07-30T17:14:42.351Z,17.03
2022-07-30T17:17:14.551Z,14.67
2022-07-30T17:19:44.461Z,14.10
2022-07-30T17:22:13.119Z,14.47
2022-07-30T17:24:42.923Z,14.30
2022-07-30T17:27:11.369Z,14.57
2022-07-30T17:29:50.578Z,15.43
2022-07-30T17:32:20.357Z,13.73
2022-07-30T17:34:49.772Z,13.40
2022-07-30T17:37:18.349Z,13.40
2022-07-30T17:40:19.593Z,14.03
2022-07-30T17:42:37.832Z,15.33
2022-07-30T17:45:07.918Z,16.40
2022-07-30T17:47:36.515Z,22.43
2022-07-30T17:50:06.688Z,14.03
2022-07-30T17:52:35.662Z,20.37
2022-07-30T17:55:06.286Z,14.37
2022-07-30T17:57:34.766Z,13.13
2022-07-30T18:00:04.827Z,13.70
2022-07-30T18:02:33.323Z,17.30
2022-07-30T18:05:02.273Z,18.50
2022-07-30T18:07:30.918Z,13.57
2022-07-30T18:09:59.498Z,14.60
2022-07-30T18:12:29.366Z,15.20
2022-07-30T18:14:57.885Z,16.43
2022-07-30T18:17:26.396Z,14.30
2022-07-30T18:19:56.099Z,14.73
2022-07-30T18:22:29.747Z,15.23
2022-07-30T18:25:00.795Z,13.90
2022-07-30T18:27:30.906Z,15.60
2022-07-30T18:29:59.400Z,17.40
2022-07-30T18:32:28.487Z,12.37
2022-07-30T18:34:57.001Z,15.43
2022-07-30T18:37:26.701Z,14.37
2022-07-30T18:40:12.085Z,17.50
2022-07-30T18:42:42.198Z,13.80
2022-07-30T18:45:13.878Z,15.40
2022-07-30T18:47:42.758Z,15.97
2022-07-30T18:50:13.036Z,15.23
2022-07-30T18:52:42.201Z,13.40
2022-07-30T18:55:12.528Z,12.23
2022-07-30T18:57:42.593Z,14.80
2022-07-30T19:00:30.948Z,17.33
2022-07-30T19:03:03.411Z,14.10
2022-07-30T19:05:32.096Z,13.53
2022-07-30T19:08:00.565Z,13.10
2022-07-30T19:10:29.490Z,15.10
2022-07-30T19:12:59.391Z,18.43
2022-07-30T19:15:29.588Z,16.30
2022-07-30T19:17:59.278Z,12.80
2022-07-30T19:20:28.015Z,13.87
2022-07-30T19:23:03.072Z,16.57
2022-07-30T19:25:36.162Z,13.63
2022-07-30T19:28:06.759Z,18.03
2022-07-30T19:30:35.968Z,13.50
2022-07-30T19:33:07.567Z,17.90
2022-07-30T19:35:37.973Z,14.73
2022-07-30T19:38:07.445Z,20.63
2022-07-30T19:40:39.543Z,15.40
2022-07-30T19:43:10.162Z,14.60
2022-07-30T19:45:47.318Z,13.20
2022-07-30T19:48:29.607Z,15.07
2022-07-30T19:53:48.585Z,13.03
2022-07-30T19:56:17.694Z,14.30
2022-07-30T19:58:49.476Z,14.20
2022-07-30T20:01:18.328Z,13.90
2022-07-30T20:03:50.930Z,13.37
2022-07-30T20:06:19.942Z,13.43
2022-07-30T20:08:49.548Z,13.93
2022-07-30T20:11:35.942Z,13.20
2022-07-30T20:14:06.581Z,13.43
2022-07-30T20:16:37.930Z,16.00
2022-07-30T20:19:06.447Z,14.00
2022-07-30T20:21:57.140Z,13.10
2022-07-30T20:24:26.440Z,14.57
2022-07-30T20:26:55.061Z,18.23
2022-07-30T20:29:25.065Z,15.70
2022-07-30T20:31:53.699Z,14.43
2022-07-30T20:34:25.775Z,13.90
2022-07-30T20:36:56.354Z,15.10
2022-07-30T20:39:25.892Z,16.50
2022-07-30T20:42:07.792Z,15.47
2022-07-30T20:44:43.089Z,16.23
2022-07-30T20:47:13.452Z,15.53
2022-07-30T20:49:42.575Z,15.43
2022-07-30T20:52:11.140Z,17.77
2022-07-30T20:54:45.063Z,14.20
2022-07-30T20:57:15.925Z,17.33
2022-07-30T21:00:00.559Z,14.67
2022-07-30T21:02:29.067Z,15.10
2022-07-30T21:04:59.800Z,28.77
2022-07-30T21:07:36.676Z,15.70
2022-07-30T21:10:07.247Z,17.77
2022-07-30T21:12:36.802Z,16.20
2022-07-30T21:15:15.692Z,16.50
2022-07-30T21:17:52.796Z,18.27
2022-07-30T21:20:27.903Z,16.50
2022-07-30T21:22:56.968Z,19.40
2022-07-30T21:25:32.440Z,15.37
2022-07-30T21:28:02.921Z,15.37
2022-07-30T21:30:34.652Z,15.97
2022-07-30T21:33:03.106Z,15.77
2022-07-30T21:35:32.732Z,16.30
2022-07-30T21:38:01.941Z,15.10
2022-07-30T21:40:31.914Z,17.93
2022-07-30T21:43:00.600Z,15.90
2022-07-30T21:45:38.144Z,16.63
2022-07-30T21:48:10.891Z,15.87
2022-07-30T21:50:41.794Z,15.50
2022-07-30T21:58:27.046Z,18.10
2022-07-30T22:12:49.549Z,16.50
2022-07-30T22:24:29.943Z,17.33
2022-07-30T22:27:11.021Z,18.83
2022-07-30T22:29:44.028Z,18.87
2022-07-30T22:33:21.433Z,16.50
2022-07-30T22:38:05.132Z,18.30
2022-07-30T22:47:54.404Z,15.90
2022-07-30T22:57:47.621Z,18.43
2022-07-30T23:02:40.913Z,15.37
2022-07-30T23:11:25.209Z,18.50
2022-07-30T23:12:16.862Z,14.27
2022-07-30T23:26:41.494Z,19.03
2022-07-30T23:35:13.400Z,20.03
2022-07-30T23:44:57.562Z,15.43
2022-07-30T23:49:42.345Z,17.57
